KISN/ISN METAR and TAF weather

Enter ICAO airport designator
Station Type Date Time Source
KISN METAR 2018/12/15 02:52 UTC NOAA

KISN 150252Z AUTO 18004KT 10SM CLR 01/M07 A2987 RMK AO2 SLP141 T00061067 58019


Station Type Date Time Source
KISN Decoded METAR 2018/12/15 02:52 UTC NOAA

SLOULIN FIELD INTERNATIONAL AIRPORT, ND, United States (KISN) 48-11N 103-39W 579M
Dec 14, 2018 - 09:52 PM EST / 2018.12.15 0252 UTC
Wind: from the S (180 degrees) at 5 MPH (4 KT):0
Visibility: 10 mile(s):0
Sky conditions: clear
Temperature: 33.1 F (0.6 C)
Windchill: 28 F (-2 C):1
Dew Point: 19.9 F (-6.7 C)
Relative Humidity: 58%
Pressure (altimeter): 29.87 in. Hg (1011 hPa)
Pressure tendency: 0.06 inches (1.9 hPa) lower than three hours ago
ob: KISN 150252Z AUTO 18004KT 10SM CLR 01/M07 A2987 RMK AO2 SLP141 T00061067 58019
cycle: 3

Station Type Date Time Source
KISN TAF 2018/12/14 18:36 UTC NOAA

TAF KISN 141734Z 1418/1518 22006KT P6SM FEW250
FM151600 24016KT P6SM BKN190


Example: see airport list